KMPV 201051Z AUTO 00000KT 10SM CLR M21/M22 A3050 RMK AO2 SLP363 T12061222